createdAt,value
2023-05-19T00:00:58.993Z,102752.75
2023-05-19T00:03:26.930Z,102754.28
2023-05-19T00:05:54.338Z,102747.81
2023-05-19T00:08:23.761Z,102749.84
2023-05-19T00:10:50.705Z,102752.19
2023-05-19T00:13:17.517Z,102744.56
2023-05-19T00:15:44.347Z,102754.81
2023-05-19T00:18:14.023Z,102748.91
2023-05-19T00:20:41.348Z,102748.41
2023-05-19T00:23:08.180Z,102739.78
2023-05-19T00:25:34.666Z,102736.56
2023-05-19T00:28:02.361Z,102731.50
2023-05-19T00:30:30.266Z,102728.13
2023-05-19T00:32:57.075Z,102732.00
2023-05-19T00:35:24.391Z,102738.38
2023-05-19T00:37:50.947Z,102729.31
2023-05-19T00:40:17.571Z,102722.56
2023-05-19T00:42:44.033Z,102727.56
2023-05-19T00:45:10.602Z,102731.56
2023-05-19T00:47:37.081Z,102731.75
2023-05-19T00:50:03.641Z,102725.50
2023-05-19T00:52:30.154Z,102736.75
2023-05-19T00:54:56.626Z,102730.66
2023-05-19T00:57:23.591Z,102717.69
2023-05-19T00:59:50.245Z,102723.25
2023-05-19T01:02:16.724Z,102726.94
2023-05-19T01:04:44.756Z,102724.56
2023-05-19T01:07:12.490Z,102732.25
2023-05-19T01:09:40.626Z,102726.19
2023-05-19T01:12:08.664Z,102732.56
2023-05-19T01:14:35.183Z,102731.34
2023-05-19T01:17:09.931Z,102725.63
2023-05-19T01:20:05.497Z,102737.50
2023-05-19T01:23:09.206Z,102732.59
2023-05-19T01:26:09.975Z,102730.38
2023-05-19T01:29:02.623Z,102728.84
2023-05-19T01:31:29.723Z,102726.31
2023-05-19T01:33:57.190Z,102720.38
2023-05-19T01:36:26.006Z,102709.44
2023-05-19T01:38:57.288Z,102714.97
2023-05-19T01:41:26.264Z,102704.38
2023-05-19T01:43:54.178Z,102707.91
2023-05-19T01:46:22.234Z,102706.38
2023-05-19T01:48:48.994Z,102702.00
2023-05-19T01:51:15.513Z,102704.97
2023-05-19T01:53:42.580Z,102711.50
2023-05-19T01:56:09.273Z,102703.91
2023-05-19T01:58:53.428Z,102707.16
2023-05-19T02:01:27.030Z,102702.25
2023-05-19T02:04:06.105Z,102705.41
2023-05-19T02:06:45.970Z,102705.72
2023-05-19T02:09:23.439Z,102709.41
2023-05-19T02:11:55.901Z,102699.50
2023-05-19T02:14:29.382Z,102702.03
2023-05-19T02:16:57.762Z,102707.25
2023-05-19T02:19:26.811Z,102709.78
2023-05-19T02:21:56.257Z,102700.88
2023-05-19T02:24:23.105Z,102694.97
2023-05-19T02:26:51.858Z,102699.50
2023-05-19T02:29:19.541Z,102697.25
2023-05-19T02:31:46.449Z,102698.56
2023-05-19T02:34:13.368Z,102693.97
2023-05-19T02:36:42.970Z,102695.09
2023-05-19T02:39:12.928Z,102691.88
2023-05-19T02:41:39.416Z,102687.66
2023-05-19T02:44:05.954Z,102692.34
2023-05-19T02:46:32.565Z,102685.44
2023-05-19T02:48:59.452Z,102683.91
2023-05-19T02:51:25.920Z,102678.53
2023-05-19T02:53:52.406Z,102685.91
2023-05-19T02:56:18.935Z,102684.19
2023-05-19T02:58:45.478Z,102679.13
2023-05-19T03:01:12.108Z,102672.38
2023-05-19T03:03:38.657Z,102674.06
2023-05-19T03:06:08.668Z,102671.53
2023-05-19T03:08:36.277Z,102675.03
2023-05-19T03:11:03.118Z,102668.00
2023-05-19T03:13:29.806Z,102669.69
2023-05-19T03:15:58.731Z,102668.84
2023-05-19T03:18:26.437Z,102672.38
2023-05-19T03:20:56.544Z,102676.03
2023-05-19T03:23:23.180Z,102668.16
2023-05-19T03:25:49.835Z,102670.69
2023-05-19T03:28:17.145Z,102671.53
2023-05-19T03:30:43.631Z,102668.84
2023-05-19T03:33:17.868Z,102669.13
2023-05-19T03:35:45.406Z,102672.97
2023-05-19T03:38:12.298Z,102671.28
2023-05-19T03:40:44.035Z,102663.34
2023-05-19T03:43:11.479Z,102673.25
2023-05-19T03:45:45.420Z,102665.34
2023-05-19T03:48:32.155Z,102666.50
2023-05-19T03:51:18.929Z,102662.13
2023-05-19T03:53:47.036Z,102669.88
2023-05-19T03:56:13.927Z,102670.44
2023-05-19T03:58:44.389Z,102669.28
2023-05-19T04:01:11.330Z,102673.66
2023-05-19T04:03:37.804Z,102668.31
2023-05-19T04:06:04.464Z,102667.59
2023-05-19T04:08:32.071Z,102680.03
2023-05-19T04:10:58.546Z,102671.81
2023-05-19T04:13:25.106Z,102666.16
2023-05-19T04:15:51.797Z,102672.06
2023-05-19T04:18:18.441Z,102668.38
2023-05-19T04:20:44.885Z,102673.44
2023-05-19T04:23:11.354Z,102673.31
2023-05-19T04:25:38.089Z,102674.00
2023-05-19T04:28:04.596Z,102673.38
2023-05-19T04:30:31.418Z,102669.94
2023-05-19T04:32:59.186Z,102677.38
2023-05-19T04:35:25.755Z,102671.22
2023-05-19T04:37:54.275Z,102666.09
2023-05-19T04:40:24.917Z,102672.16
2023-05-19T04:42:52.438Z,102670.53
2023-05-19T04:45:19.320Z,102675.63
2023-05-19T04:47:49.562Z,102673.47
2023-05-19T04:50:16.869Z,102678.25
2023-05-19T04:52:45.551Z,102679.47
2023-05-19T04:55:12.966Z,102680.22
2023-05-19T04:57:39.601Z,102680.63
2023-05-19T05:00:13.281Z,102683.50
2023-05-19T05:02:52.404Z,102687.13
2023-05-19T05:05:21.087Z,102679.41
2023-05-19T05:07:47.752Z,102679.28
2023-05-19T05:10:14.445Z,102677.50
2023-05-19T05:12:41.444Z,102680.28
2023-05-19T05:15:08.714Z,102686.81
2023-05-19T05:17:37.599Z,102680.97
2023-05-19T05:20:06.210Z,102687.19
2023-05-19T05:22:33.470Z,102685.88
2023-05-19T05:25:01.814Z,102685.59
2023-05-19T05:27:28.574Z,102668.31
2023-05-19T05:29:56.448Z,102671.06
2023-05-19T05:32:26.095Z,102667.94
2023-05-19T05:34:52.753Z,102680.59
2023-05-19T05:37:19.249Z,102678.19
2023-05-19T05:39:45.824Z,102667.63
2023-05-19T05:42:13.131Z,102672.31
2023-05-19T05:44:40.436Z,102677.53
2023-05-19T05:47:07.617Z,102672.97
2023-05-19T05:49:38.118Z,102678.75
2023-05-19T05:52:06.928Z,102674.16
2023-05-19T05:54:41.051Z,102677.69
2023-05-19T05:57:08.744Z,102685.50
2023-05-19T05:59:35.201Z,102686.22
2023-05-19T06:02:01.724Z,102681.16
2023-05-19T06:04:28.793Z,102686.56
2023-05-19T06:07:00.978Z,102680.09
2023-05-19T06:09:30.862Z,102689.84
2023-05-19T06:11:59.198Z,102690.69
2023-05-19T06:14:28.956Z,102694.03
2023-05-19T06:17:13.957Z,102694.50
2023-05-19T06:19:40.613Z,102696.00
2023-05-19T06:22:07.145Z,102690.66
2023-05-19T06:24:33.886Z,102678.59
2023-05-19T06:27:00.427Z,102683.84
2023-05-19T06:29:26.939Z,102686.38
2023-05-19T06:31:55.675Z,102678.91
2023-05-19T06:34:22.197Z,102685.34
2023-05-19T06:36:48.697Z,102685.66
2023-05-19T06:39:16.124Z,102682.00
2023-05-19T06:41:42.950Z,102680.34
2023-05-19T06:44:09.598Z,102669.56
2023-05-19T06:46:36.325Z,102679.81
2023-05-19T06:49:03.949Z,102676.59
2023-05-19T06:51:35.315Z,102678.47
2023-05-19T06:54:02.084Z,102685.53
2023-05-19T06:56:28.759Z,102683.72
2023-05-19T06:58:55.914Z,102685.34
2023-05-19T07:01:27.666Z,102684.25
2023-05-19T07:03:55.685Z,102691.59
2023-05-19T07:06:22.403Z,102688.53
2023-05-19T07:08:50.476Z,102690.94
2023-05-19T07:11:17.624Z,102687.34
2023-05-19T07:13:44.680Z,102689.28
2023-05-19T07:16:11.895Z,102681.13
2023-05-19T07:18:38.711Z,102682.97
2023-05-19T07:21:05.500Z,102686.41
2023-05-19T07:23:32.119Z,102682.94
2023-05-19T07:25:58.615Z,102678.94
2023-05-19T07:28:25.283Z,102684.19
2023-05-19T07:30:51.984Z,102687.84
2023-05-19T07:33:18.543Z,102682.16
2023-05-19T07:35:46.196Z,102688.88
2023-05-19T07:38:12.639Z,102685.03
2023-05-19T07:40:39.216Z,102684.91
2023-05-19T07:43:05.723Z,102691.06
2023-05-19T07:45:32.156Z,102683.09
2023-05-19T07:47:58.650Z,102687.19
2023-05-19T07:50:25.473Z,102681.88
2023-05-19T07:52:51.951Z,102672.13
2023-05-19T07:55:19.154Z,102677.50
2023-05-19T07:57:45.701Z,102673.34
2023-05-19T08:00:13.403Z,102667.66
2023-05-19T08:02:41.057Z,102665.31
2023-05-19T08:05:09.406Z,102666.38
2023-05-19T08:07:36.147Z,102663.31
2023-05-19T08:10:03.753Z,102656.25
2023-05-19T08:12:30.304Z,102662.53
2023-05-19T08:14:58.191Z,102651.88
2023-05-19T08:17:26.345Z,102661.13
2023-05-19T08:19:53.384Z,102668.72
2023-05-19T08:22:19.881Z,102655.69
2023-05-19T08:24:46.365Z,102651.69
2023-05-19T08:27:12.789Z,102647.25
2023-05-19T08:29:39.218Z,102637.91
2023-05-19T08:32:05.844Z,102642.78
2023-05-19T08:34:32.779Z,102646.88
2023-05-19T08:36:59.762Z,102634.34
2023-05-19T08:39:27.010Z,102636.28
2023-05-19T08:41:54.200Z,102636.53
2023-05-19T08:44:20.780Z,102629.84
2023-05-19T08:46:47.698Z,102627.81
2023-05-19T08:49:16.743Z,102619.00
2023-05-19T08:51:50.421Z,102627.44
2023-05-19T08:54:18.132Z,102623.53
2023-05-19T08:56:47.966Z,102623.22
2023-05-19T08:59:17.764Z,102618.56
2023-05-19T09:01:45.855Z,102616.81
2023-05-19T09:04:13.266Z,102614.59
2023-05-19T09:06:42.295Z,102615.41
2023-05-19T09:09:09.198Z,102614.28
2023-05-19T09:11:37.501Z,102612.03
2023-05-19T09:14:05.061Z,102610.16
2023-05-19T09:16:32.905Z,102605.13
2023-05-19T09:19:01.105Z,102605.75
2023-05-19T09:21:32.228Z,102604.28
2023-05-19T09:24:05.055Z,102600.78
2023-05-19T09:26:39.179Z,102606.06
2023-05-19T09:29:13.617Z,102604.88
2023-05-19T09:31:47.393Z,102602.94
2023-05-19T09:34:13.928Z,102599.00
2023-05-19T09:36:42.238Z,102601.13
2023-05-19T09:39:16.435Z,102588.34
2023-05-19T09:41:43.304Z,102595.75
2023-05-19T09:44:29.262Z,102601.50
2023-05-19T09:46:56.748Z,102596.00
2023-05-19T09:49:29.674Z,102593.31
2023-05-19T09:51:57.589Z,102602.03
2023-05-19T09:54:25.180Z,102590.00
2023-05-19T09:57:03.557Z,102589.38
2023-05-19T09:59:33.452Z,102591.53
2023-05-19T10:02:02.057Z,102594.22
2023-05-19T10:04:30.175Z,102590.63
2023-05-19T10:07:05.373Z,102593.00
2023-05-19T10:09:32.208Z,102591.03
2023-05-19T10:11:59.205Z,102581.16
2023-05-19T10:14:27.922Z,102585.34
2023-05-19T10:16:56.515Z,102579.69
2023-05-19T10:19:25.269Z,102577.19
2023-05-19T10:21:52.411Z,102573.19
2023-05-19T10:24:19.450Z,102573.28
2023-05-19T10:26:51.561Z,102571.53
2023-05-19T10:29:23.112Z,102576.09
2023-05-19T10:31:52.546Z,102577.31
2023-05-19T10:34:19.039Z,102568.88
2023-05-19T10:36:57.064Z,102555.31
2023-05-19T10:39:35.392Z,102557.13
2023-05-19T10:42:10.836Z,102556.31
2023-05-19T10:45:14.647Z,102557.38
2023-05-19T10:47:41.997Z,102565.75
2023-05-19T10:50:10.005Z,102561.44
2023-05-19T10:52:40.400Z,102559.69
2023-05-19T10:55:17.386Z,102560.63
2023-05-19T10:57:54.426Z,102559.28
2023-05-19T11:00:28.467Z,102552.94
2023-05-19T11:03:13.388Z,102557.63
2023-05-19T11:05:40.005Z,102559.09
2023-05-19T11:08:11.481Z,102550.13
2023-05-19T11:10:38.285Z,102548.50
2023-05-19T11:13:06.536Z,102551.78
2023-05-19T11:15:37.239Z,102539.66
2023-05-19T11:18:05.016Z,102544.72
2023-05-19T11:20:35.240Z,102534.91
2023-05-19T11:23:17.944Z,102527.25
2023-05-19T11:25:49.265Z,102528.56
2023-05-19T11:28:18.960Z,102532.13
2023-05-19T11:30:49.353Z,102532.88
2023-05-19T11:33:19.211Z,102529.66
2023-05-19T11:35:51.028Z,102520.75
2023-05-19T11:38:19.800Z,102513.44
2023-05-19T11:40:47.689Z,102515.59
2023-05-19T11:43:14.117Z,102524.06
2023-05-19T11:45:40.712Z,102512.28
2023-05-19T11:48:11.378Z,102523.09
2023-05-19T11:50:40.478Z,102522.63
2023-05-19T11:53:07.581Z,102512.34
2023-05-19T11:55:34.113Z,102520.53
2023-05-19T11:58:05.799Z,102512.91
2023-05-19T12:00:39.041Z,102510.41
2023-05-19T12:03:06.440Z,102512.78
2023-05-19T12:05:39.865Z,102515.56
2023-05-19T12:08:07.683Z,102516.97
2023-05-19T12:10:34.619Z,102516.53
2023-05-19T12:13:02.090Z,102510.56
2023-05-19T12:15:28.821Z,102513.66
2023-05-19T12:18:00.562Z,102514.09
2023-05-19T12:20:29.168Z,102511.22
2023-05-19T12:22:56.289Z,102513.03
2023-05-19T12:25:23.795Z,102508.53
2023-05-19T12:27:52.720Z,102510.72
2023-05-19T12:30:26.801Z,102495.47
2023-05-19T12:32:54.218Z,102479.69
2023-05-19T12:35:23.312Z,102511.34
2023-05-19T12:37:50.521Z,102495.81
2023-05-19T12:40:17.144Z,102489.47
2023-05-19T12:42:48.710Z,102484.53
2023-05-19T12:45:15.335Z,102485.13
2023-05-19T12:47:41.861Z,102492.00
2023-05-19T12:50:09.907Z,102488.34
2023-05-19T12:52:53.273Z,102483.03
2023-05-19T12:55:20.870Z,102482.31
2023-05-19T12:57:57.854Z,102487.34
2023-05-19T13:00:28.077Z,102480.53
2023-05-19T13:02:55.347Z,102469.16
2023-05-19T13:05:22.731Z,102467.41
2023-05-19T13:08:05.948Z,102476.63
2023-05-19T13:10:34.616Z,102470.72
2023-05-19T13:13:01.747Z,102471.25
2023-05-19T13:15:34.389Z,102466.09
2023-05-19T13:18:03.642Z,102471.31
2023-05-19T13:20:30.392Z,102459.31
2023-05-19T13:22:57.358Z,102464.47
2023-05-19T13:25:23.982Z,102469.78
2023-05-19T13:27:50.948Z,102465.47
2023-05-19T13:30:18.715Z,102461.69
2023-05-19T13:32:45.976Z,102467.47
2023-05-19T13:35:14.085Z,102447.53
2023-05-19T13:37:43.525Z,102451.47
2023-05-19T13:40:10.946Z,102448.25
2023-05-19T13:42:37.882Z,102439.66
2023-05-19T13:45:05.116Z,102439.88
2023-05-19T13:47:31.641Z,102436.84
2023-05-19T13:49:58.152Z,102437.63
2023-05-19T13:52:25.288Z,102431.59
2023-05-19T13:54:54.544Z,102426.56
2023-05-19T13:57:21.157Z,102433.09
2023-05-19T14:00:01.013Z,102427.41
2023-05-19T14:02:38.664Z,102429.72
2023-05-19T14:05:06.679Z,102430.53
2023-05-19T14:07:34.858Z,102439.56
2023-05-19T14:10:02.570Z,102434.75
2023-05-19T14:12:38.149Z,102428.19
2023-05-19T14:15:11.485Z,102422.81
2023-05-19T14:17:38.233Z,102425.34
2023-05-19T14:20:05.437Z,102415.97
2023-05-19T14:22:32.245Z,102416.53
2023-05-19T14:25:00.255Z,102415.94
2023-05-19T14:27:26.684Z,102417.19
2023-05-19T14:29:53.174Z,102413.06
2023-05-19T14:32:20.282Z,102412.03
2023-05-19T14:34:46.920Z,102402.91
2023-05-19T14:37:13.351Z,102406.06
2023-05-19T14:39:39.831Z,102408.47
2023-05-19T14:42:06.348Z,102403.50
2023-05-19T14:44:33.040Z,102402.00
2023-05-19T14:47:01.161Z,102406.75
2023-05-19T14:49:27.682Z,102395.78
2023-05-19T14:51:54.352Z,102396.66
2023-05-19T14:54:20.822Z,102389.72
2023-05-19T14:56:47.284Z,102389.69
2023-05-19T14:59:13.901Z,102395.72
2023-05-19T15:01:40.405Z,102395.41
2023-05-19T15:04:07.054Z,102393.91
2023-05-19T15:06:33.502Z,102388.13
2023-05-19T15:09:00.059Z,102397.38
2023-05-19T15:11:26.548Z,102392.59
2023-05-19T15:13:53.159Z,102393.38
2023-05-19T15:16:19.642Z,102388.41
2023-05-19T15:18:46.198Z,102380.78
2023-05-19T15:21:12.749Z,102374.75
2023-05-19T15:23:39.276Z,102373.38
2023-05-19T15:26:05.943Z,102369.00
2023-05-19T15:28:33.544Z,102372.28
2023-05-19T15:31:00.038Z,102376.69
2023-05-19T15:33:26.602Z,102376.16
2023-05-19T15:35:53.275Z,102376.91
2023-05-19T15:38:20.250Z,102374.56
2023-05-19T15:40:47.079Z,102375.19
2023-05-19T15:43:13.856Z,102372.16
2023-05-19T15:45:40.772Z,102368.69
2023-05-19T15:48:07.328Z,102368.91
2023-05-19T15:50:33.989Z,102370.16
2023-05-19T15:53:00.688Z,102367.13
2023-05-19T15:55:27.108Z,102359.63
2023-05-19T15:57:53.691Z,102361.28
2023-05-19T16:00:20.514Z,102364.34
2023-05-19T16:02:47.078Z,102375.69
2023-05-19T16:05:13.649Z,102367.59
2023-05-19T16:07:41.975Z,102360.84
2023-05-19T16:10:08.961Z,102348.03
2023-05-19T16:12:36.539Z,102340.66
2023-05-19T16:15:03.318Z,102345.72
2023-05-19T16:17:29.925Z,102346.28
2023-05-19T16:19:56.577Z,102346.66
2023-05-19T16:22:24.714Z,102343.44
2023-05-19T16:24:52.070Z,102338.19
2023-05-19T16:27:19.087Z,102333.97
2023-05-19T16:29:45.820Z,102333.66
2023-05-19T16:32:12.772Z,102335.63
2023-05-19T16:34:39.579Z,102337.03
2023-05-19T16:37:06.146Z,102340.25
2023-05-19T16:39:32.707Z,102334.09
2023-05-19T16:41:59.132Z,102348.97
2023-05-19T16:44:25.717Z,102343.66
2023-05-19T16:46:52.229Z,102335.97
2023-05-19T16:49:18.669Z,102333.41
2023-05-19T16:51:46.797Z,102341.94
2023-05-19T16:54:14.688Z,102337.50
2023-05-19T16:56:41.145Z,102342.34
2023-05-19T16:59:10.152Z,102344.09
2023-05-19T17:01:36.698Z,102344.06
2023-05-19T17:04:03.250Z,102342.47
2023-05-19T17:06:29.755Z,102343.63
2023-05-19T17:08:56.348Z,102336.88
2023-05-19T17:11:22.924Z,102350.59
2023-05-19T17:13:49.477Z,102340.03
2023-05-19T17:16:16.208Z,102341.44
2023-05-19T17:18:43.586Z,102339.63
2023-05-19T17:21:10.492Z,102338.94
2023-05-19T17:23:37.767Z,102339.44
2023-05-19T17:26:04.485Z,102337.34
2023-05-19T17:28:30.953Z,102346.41
2023-05-19T17:30:57.384Z,102338.41
2023-05-19T17:33:23.918Z,102349.78
2023-05-19T17:35:50.510Z,102343.69
2023-05-19T17:38:17.072Z,102345.84
2023-05-19T17:40:43.510Z,102346.13
2023-05-19T17:43:09.981Z,102342.16
2023-05-19T17:45:36.484Z,102354.00
2023-05-19T17:48:03.159Z,102344.19
2023-05-19T17:50:29.667Z,102347.19
2023-05-19T17:52:56.420Z,102352.09
2023-05-19T17:55:27.922Z,102347.75
2023-05-19T17:57:54.653Z,102353.94
2023-05-19T18:00:21.604Z,102347.09
2023-05-19T18:02:48.485Z,102351.53
2023-05-19T18:05:15.700Z,102353.34
2023-05-19T18:07:42.302Z,102351.97
2023-05-19T18:10:09.690Z,102355.09
2023-05-19T18:12:36.218Z,102356.91
2023-05-19T18:15:03.674Z,102357.09
2023-05-19T18:17:30.148Z,102361.59
2023-05-19T18:19:56.677Z,102359.00
2023-05-19T18:22:23.131Z,102356.16
2023-05-19T18:24:49.646Z,102361.41
2023-05-19T18:27:16.129Z,102358.56
2023-05-19T18:29:42.544Z,102364.75
2023-05-19T18:32:09.282Z,102366.66
2023-05-19T18:34:35.868Z,102365.69
2023-05-19T18:37:02.341Z,102378.03
2023-05-19T18:39:29.426Z,102375.31
2023-05-19T18:41:56.018Z,102373.72
2023-05-19T18:44:22.533Z,102371.44
2023-05-19T18:46:49.088Z,102374.84
2023-05-19T18:49:15.688Z,102372.41
2023-05-19T18:51:42.489Z,102383.09
2023-05-19T18:54:09.050Z,102388.72
2023-05-19T18:56:35.637Z,102381.75
2023-05-19T18:59:02.106Z,102385.66
2023-05-19T19:01:28.943Z,102387.47
2023-05-19T19:03:55.723Z,102380.25
2023-05-19T19:06:23.249Z,102389.81
2023-05-19T19:08:50.004Z,102390.22
2023-05-19T19:11:16.574Z,102393.72
2023-05-19T19:13:43.614Z,102392.41
2023-05-19T19:16:10.853Z,102388.50
2023-05-19T19:18:37.305Z,102391.69
2023-05-19T19:21:05.680Z,102395.72
2023-05-19T19:23:32.565Z,102399.91
2023-05-19T19:25:59.108Z,102390.75
2023-05-19T19:28:25.707Z,102405.69
2023-05-19T19:30:52.355Z,102400.16
2023-05-19T19:33:18.902Z,102408.81
2023-05-19T19:35:46.897Z,102410.34
2023-05-19T19:38:13.708Z,102408.72
2023-05-19T19:40:40.327Z,102414.41
2023-05-19T19:43:06.805Z,102418.41
2023-05-19T19:45:34.679Z,102407.97
2023-05-19T19:48:01.647Z,102423.50
2023-05-19T19:50:28.284Z,102427.94
2023-05-19T19:52:54.814Z,102429.22
2023-05-19T19:55:21.549Z,102432.78
2023-05-19T19:57:49.235Z,102429.88
2023-05-19T20:00:16.593Z,102443.72
2023-05-19T20:02:55.853Z,102442.03
2023-05-19T20:05:29.699Z,102440.41
2023-05-19T20:07:56.148Z,102441.91
2023-05-19T20:10:22.691Z,102445.84
2023-05-19T20:12:50.496Z,102444.00
2023-05-19T20:15:17.216Z,102440.88
2023-05-19T20:17:43.721Z,102443.41
2023-05-19T20:20:12.071Z,102447.59
2023-05-19T20:22:39.034Z,102453.25
2023-05-19T20:25:05.959Z,102445.94
2023-05-19T20:27:32.456Z,102456.19
2023-05-19T20:29:58.959Z,102466.25
2023-05-19T20:32:25.590Z,102460.97
2023-05-19T20:34:52.119Z,102453.84
2023-05-19T20:37:18.543Z,102459.47
2023-05-19T20:39:44.992Z,102459.88
2023-05-19T20:42:11.449Z,102461.16
2023-05-19T20:44:37.956Z,102460.34
2023-05-19T20:47:04.751Z,102462.59
2023-05-19T20:49:31.290Z,102469.72
2023-05-19T20:51:57.817Z,102468.88
2023-05-19T20:54:24.379Z,102471.81
2023-05-19T20:56:51.802Z,102463.88
2023-05-19T20:59:18.224Z,102465.97
2023-05-19T21:01:45.683Z,102475.53
2023-05-19T21:04:12.231Z,102476.38
2023-05-19T21:06:38.798Z,102474.28
2023-05-19T21:09:06.691Z,102479.09
2023-05-19T21:11:33.925Z,102479.25
2023-05-19T21:14:06.095Z,102480.50
2023-05-19T21:16:33.869Z,102475.69
2023-05-19T21:19:01.664Z,102475.47
2023-05-19T21:21:28.359Z,102476.91
2023-05-19T21:23:54.843Z,102478.78
2023-05-19T21:26:21.980Z,102488.81
2023-05-19T21:28:48.554Z,102495.09
2023-05-19T21:31:15.254Z,102488.78
2023-05-19T21:33:41.798Z,102489.63
2023-05-19T21:36:08.398Z,102488.75
2023-05-19T21:38:34.889Z,102487.06
2023-05-19T21:41:01.378Z,102491.25
2023-05-19T21:43:27.888Z,102505.03
2023-05-19T21:45:54.328Z,102501.91
2023-05-19T21:48:21.579Z,102502.94
2023-05-19T21:50:55.234Z,102503.34
2023-05-19T21:53:21.718Z,102506.28
2023-05-19T21:55:48.177Z,102508.34
2023-05-19T21:58:14.671Z,102498.31
2023-05-19T22:00:41.422Z,102503.34
2023-05-19T22:03:08.084Z,102503.72
2023-05-19T22:05:35.260Z,102497.44
2023-05-19T22:08:01.921Z,102502.03
2023-05-19T22:10:28.324Z,102497.00
2023-05-19T22:12:54.809Z,102500.75
2023-05-19T22:15:21.262Z,102499.09
2023-05-19T22:17:47.861Z,102502.44
2023-05-19T22:20:14.429Z,102503.91
2023-05-19T22:22:41.272Z,102497.22
2023-05-19T22:25:08.100Z,102498.66
2023-05-19T22:27:34.575Z,102491.50
2023-05-19T22:30:01.106Z,102504.44
2023-05-19T22:32:27.660Z,102497.94
2023-05-19T22:34:54.245Z,102502.25
2023-05-19T22:37:22.925Z,102504.34
2023-05-19T22:39:49.455Z,102506.78
2023-05-19T22:42:15.920Z,102507.19
2023-05-19T22:44:43.430Z,102499.44
2023-05-19T22:47:13.358Z,102499.19
2023-05-19T22:49:40.869Z,102501.25
2023-05-19T22:52:09.952Z,102501.47
2023-05-19T22:54:37.097Z,102504.97
2023-05-19T22:57:03.718Z,102504.91
2023-05-19T22:59:30.524Z,102503.22
2023-05-19T23:01:56.957Z,102500.91
2023-05-19T23:04:23.581Z,102504.41
2023-05-19T23:06:50.230Z,102507.88
2023-05-19T23:09:17.844Z,102512.22
2023-05-19T23:11:45.056Z,102515.53
2023-05-19T23:14:11.488Z,102504.41
2023-05-19T23:16:37.927Z,102506.22
2023-05-19T23:19:04.469Z,102490.06
2023-05-19T23:21:32.385Z,102499.63
2023-05-19T23:23:59.403Z,102496.38
2023-05-19T23:26:26.926Z,102504.72
2023-05-19T23:28:53.423Z,102500.53
2023-05-19T23:31:20.123Z,102496.13
2023-05-19T23:33:46.625Z,102495.03
2023-05-19T23:36:13.217Z,102502.03
2023-05-19T23:38:39.726Z,102501.41
2023-05-19T23:41:06.180Z,102501.78
2023-05-19T23:43:32.837Z,102496.56
2023-05-19T23:45:59.619Z,102492.75
2023-05-19T23:48:28.628Z,102490.16
2023-05-19T23:50:55.304Z,102498.84
2023-05-19T23:53:21.722Z,102492.97
2023-05-19T23:55:48.185Z,102489.78
2023-05-19T23:58:15.866Z,102496.63
